地図

経路データ

SID SEASON NUMBER BASIN SUBBASIN NAME ISO_TIME NATURE LAT LON WMO_WIND WMO_PRES WMO_AGENCY TRACK_TYPE DIST2LAND LANDFALL IFLAG USA_AGENCY USA_ATCF_ID USA_LAT USA_LON USA_RECORD USA_STATUS USA_WIND USA_PRES USA_SSHS USA_R34_NE USA_R34_SE USA_R34_SW USA_R34_NW USA_R50_NE USA_R50_SE USA_R50_SW USA_R50_NW USA_R64_NE USA_R64_SE USA_R64_SW USA_R64_NW USA_POCI USA_ROCI USA_RMW USA_EYE TOKYO_LAT TOKYO_LON TOKYO_GRADE TOKYO_WIND TOKYO_PRES TOKYO_R50_DIR TOKYO_R50_LONG TOKYO_R50_SHORT TOKYO_R30_DIR TOKYO_R30_LONG TOKYO_R30_SHORT TOKYO_LAND CMA_LAT CMA_LON CMA_CAT CMA_WIND CMA_PRES HKO_LAT HKO_LON HKO_CAT HKO_WIND HKO_PRES NEWDELHI_LAT NEWDELHI_LON NEWDELHI_GRADE NEWDELHI_WIND NEWDELHI_PRES NEWDELHI_CI NEWDELHI_DP NEWDELHI_POCI REUNION_LAT REUNION_LON REUNION_TYPE REUNION_WIND REUNION_PRES REUNION_TNUM REUNION_CI REUNION_RMW REUNION_R34_NE REUNION_R34_SE REUNION_R34_SW REUNION_R34_NW REUNION_R50_NE REUNION_R50_SE REUNION_R50_SW REUNION_R50_NW REUNION_R64_NE REUNION_R64_SE REUNION_R64_SW REUNION_R64_NW BOM_LAT BOM_LON BOM_TYPE BOM_WIND BOM_PRES BOM_TNUM BOM_CI BOM_RMW BOM_R34_NE BOM_R34_SE BOM_R34_SW BOM_R34_NW BOM_R50_NE BOM_R50_SE BOM_R50_SW BOM_R50_NW BOM_R64_NE BOM_R64_SE BOM_R64_SW BOM_R64_NW BOM_ROCI BOM_POCI BOM_EYE BOM_POS_METHOD BOM_PRES_METHOD NADI_LAT NADI_LON NADI_CAT NADI_WIND NADI_PRES WELLINGTON_LAT WELLINGTON_LON WELLINGTON_WIND WELLINGTON_PRES DS824_LAT DS824_LON DS824_STAGE DS824_WIND DS824_PRES TD9636_LAT TD9636_LON TD9636_STAGE TD9636_WIND TD9636_PRES TD9635_LAT TD9635_LON TD9635_WIND TD9635_PRES TD9635_ROCI NEUMANN_LAT NEUMANN_LON NEUMANN_CLASS NEUMANN_WIND NEUMANN_PRES MLC_LAT MLC_LON MLC_CLASS MLC_WIND MLC_PRES USA_GUST BOM_GUST BOM_GUST_PER REUNION_GUST REUNION_GUST_PER USA_SEAHGT USA_SEARAD_NE USA_SEARAD_SE USA_SEARAD_SW USA_SEARAD_NW STORM_SPEED STORM_DIR
1982169N26274 1982 38 NA GM NOT_NAMED 1982-06-18 00:00:00 SS 25.8000 -86.4000 25 1004 hurdat_atl main 413 304 O_____________ hurdat_atl AL021982 25.8000 -86.4000 SD 25 1004 -2 21 52
1982169N26274 1982 38 NA GM NOT_NAMED 1982-06-18 03:00:00 SS 26.4491 -85.4861 main 304 189 P_____________ AL021982 26.4491 -85.4861 SD 27 1003 -2 21 51
1982169N26274 1982 38 NA GM NOT_NAMED 1982-06-18 06:00:00 SS 27.1000 -84.6000 30 1003 hurdat_atl main 189 91 O_____________ hurdat_atl AL021982 27.1000 -84.6000 SD 30 1003 -2 21 49
1982169N26274 1982 38 NA GM NOT_NAMED 1982-06-18 09:00:00 SS 27.7934 -83.7475 main 79 29 P_____________ AL021982 27.7934 -83.7475 SD 35 1001 -2 23 45
1982169N26274 1982 38 NA GM NOT_NAMED 1982-06-18 12:00:00 SS 28.7000 -82.8000 40 999 hurdat_atl main 19 0 O_____________ hurdat_atl AL021982 28.7000 -82.8000 SS 40 999 -2 30 41
1982169N26274 1982 38 NA NA NOT_NAMED 1982-06-18 15:00:00 SS 30.0901 -81.5061 main 0 0 P_____________ AL021982 30.0901 -81.5061 SS 50 995 -2 35 39
1982169N26274 1982 38 NA NA NOT_NAMED 1982-06-18 18:00:00 SS 31.4000 -80.3000 60 992 hurdat_atl main 79 72 O_____________ hurdat_atl AL021982 31.4000 -80.3000 SS 60 992 -2 25 39
1982169N26274 1982 38 NA NA NOT_NAMED 1982-06-18 21:00:00 SS 32.0448 -79.6604 main 72 58 P_____________ AL021982 32.0448 -79.6604 SS 60 992 -2 14 40
1982169N26274 1982 38 NA NA NOT_NAMED 1982-06-19 00:00:00 SS 32.5000 -79.2000 60 992 hurdat_atl main 58 43 O_____________ hurdat_atl AL021982 32.5000 -79.2000 SS 60 992 -2 15 40
1982169N26274 1982 38 NA NA NOT_NAMED 1982-06-19 03:00:00 SS 33.1769 -78.5516 main 55 14 P_____________ AL021982 33.1769 -78.5516 SS 60 992 -2 18 40
1982169N26274 1982 38 NA NA NOT_NAMED 1982-06-19 06:00:00 SS 33.9000 -77.8000 60 992 hurdat_atl main 18 14 O_____________ hurdat_atl AL021982 33.9000 -77.8000 SS 60 992 -2 19 43
1982169N26274 1982 38 NA NA NOT_NAMED 1982-06-19 09:00:00 SS 34.5676 -77.0152 main 11 0 P_____________ AL021982 34.5676 -77.0152 SS 60 992 -2 20 47
1982169N26274 1982 38 NA NA NOT_NAMED 1982-06-19 12:00:00 SS 35.3000 -76.0000 60 992 hurdat_atl main 14 9 O_____________ hurdat_atl AL021982 35.3000 -76.0000 SS 60 992 -2 25 52
1982169N26274 1982 38 NA NA NOT_NAMED 1982-06-19 15:00:00 SS 36.1263 -74.5877 main 87 87 P_____________ AL021982 36.1263 -74.5877 SS 60 992 -2 30 53
1982169N26274 1982 38 NA NA NOT_NAMED 1982-06-19 18:00:00 SS 37.1000 -73.0000 60 992 hurdat_atl main 227 227 O_____________ hurdat_atl AL021982 37.1000 -73.0000 SS 60 992 -2 32 49
1982169N26274 1982 38 NA NA NOT_NAMED 1982-06-19 21:00:00 SS 38.2037 -71.5998 main 274 239 P_____________ AL021982 38.2037 -71.5998 SS 60 992 -2 34 44
1982169N26274 1982 38 NA NA NOT_NAMED 1982-06-20 00:00:00 SS 39.5000 -70.0000 60 992 hurdat_atl main 230 169 O_____________ hurdat_atl AL021982 39.5000 -70.0000 SS 60 992 -2 40 45
1982169N26274 1982 38 NA NA NOT_NAMED 1982-06-20 03:00:00 SS 41.0272 -67.9410 main 191 122 P_____________ AL021982 41.0272 -67.9410 SS 60 990 -2 45 49
1982169N26274 1982 38 NA NA NOT_NAMED 1982-06-20 06:00:00 SS 42.5000 -65.5000 60 988 hurdat_atl main 111 82 O_____________ hurdat_atl AL021982 42.5000 -65.5000 SS 60 988 -2 47 56
1982169N26274 1982 38 NA NA NOT_NAMED 1982-06-20 09:00:00 SS 43.6625 -62.7143 main 105 101 P_____________ AL021982 43.6625 -62.7143 SS 60 986 -2 44 63
1982169N26274 1982 38 NA NA NOT_NAMED 1982-06-20 12:00:00 SS 44.5000 -60.0000 60 984 hurdat_atl main 116 116 O_____________ hurdat_atl AL021982 44.5000 -60.0000 SS 60 984 -2 37 69
1982169N26274 1982 38 NA NA NOT_NAMED 1982-06-20 15:00:00 SS 45.0334 -57.8233 main 199 158 P_____________ AL021982 45.0334 -57.8233 SS 60 987 -2 30 72
1982169N26274 1982 38 NA NA NOT_NAMED 1982-06-20 18:00:00 ET 45.4000 -56.0000 60 990 hurdat_atl main 157 O_____________ hurdat_atl AL021982 45.4000 -56.0000 EX 60 990 -4 27 74

IBTrACS Databaseについて

本データベースは、米国NOAAが公開する1842年以降の世界の熱帯低気圧のベストトラックデータアーカイブInternational Best Track Archive for Climate Stewardship (IBTrACS)を、ウェブで閲覧しやすい形式に変換したものです。

最終更新日:2021-11-26